Time;durP1;ratioP1;P1;durP2;ratioP2;P2;SDS_P1;SDS_P2;PMS_P1;PMS_P2;Temp;Humidity;BMP_temperature;BMP_pressure;BME280_temperature;BME280_humidity;BME280_pressure;Samples;Min_cycle;Max_cycle;Signal;HPM_P1;HPM_P2
2023/11/05 00:01:29;;;;;;;;;;;;;;;8.78;96.91;97336.16;5031413;28;19928;-83
2023/11/05 00:05:14;;;;;;;;;;;;;;;8.80;96.45;97328.94;5030860;28;19936;-74
2023/11/05 00:08:54;;;;;;;;;;;;;;;8.82;96.02;97332.22;5028281;28;19995;-70
2023/11/05 00:12:34;;;;;;;;;;;;;;;8.83;96.04;97326.00;5026684;28;19929;-78
2023/11/05 00:16:14;;;;;;;;;;;;;;;8.82;95.81;97319.09;5027461;28;19932;-74
2023/11/05 00:19:55;;;;;;;;;;;;;;;8.85;95.71;97312.72;5028527;28;19923;-77
2023/11/05 00:23:36;;;;;;;;;;;;;;;8.88;96.01;97309.78;5020695;28;19928;-65
2023/11/05 00:26:55;;;;;;;;;;;;;;;8.85;95.76;97310.91;5023746;28;19962;-72
2023/11/05 00:30:12;;;;;;;;;;;;;;;8.84;96.35;97303.22;5025520;28;19940;-71
2023/11/05 00:33:28;;;;;;;;;;;;;;;8.83;96.36;97301.59;5022153;28;19936;-70
2023/11/05 00:36:43;;;;;;;;;;;;;;;8.84;95.99;97306.66;5016763;28;19928;-70
2023/11/05 00:39:59;;;;;;;;;;;;;;;8.90;96.30;97294.69;5021392;28;19936;-71
2023/11/05 00:43:15;;;;;;;;;;;;;;;8.92;96.06;97303.25;5024172;28;19928;-70
2023/11/05 00:46:34;;;;;;;;;;;;;;;8.91;95.80;97292.88;5023565;28;20350;-69
2023/11/05 00:49:50;;;;;;;;;;;;;;;8.91;96.43;97293.69;5019536;28;19991;-69
2023/11/05 00:53:06;;;;;;;;;;;;;;;8.88;96.29;97288.81;5017215;28;20012;-69
2023/11/05 00:55:59;;;;;;;;;;;;;;;8.90;96.12;97289.44;5028159;28;20367;-70
2023/11/05 01:12:21;;;;;;;;;;;;;;;9.00;95.68;97279.63;5014533;28;19936;-70
2023/11/05 01:15:13;;;;;;;;;;;;;;;8.99;95.99;97285.03;5038814;28;19929;-70
2023/11/05 01:18:05;;;;;;;;;;;;;;;9.00;95.19;97279.63;5016851;28;19979;-68
2023/11/05 01:26:42;;;;;;;;;;;;;;;9.07;95.38;97270.13;5022096;28;20383;-71
2023/11/05 01:29:09;;;;;;;;;;;;;;;9.06;95.27;97270.28;5024946;28;19972;-74
2023/11/05 01:53:50;;;;;;;;;;;;;;;9.12;95.54;97252.09;5026888;28;19940;-73
2023/11/05 01:56:43;;;;;;;;;;;;;;;9.14;95.52;97265.06;4990858;28;19933;-69
2023/11/05 01:59:35;;;;;;;;;;;;;;;9.11;96.77;97247.81;5018309;28;19948;-73
2023/11/05 02:32:10;;;;;;;;;;;;;;;8.79;100.00;97259.09;5021381;28;19928;-76
2023/11/05 02:35:05;;;;;;;;;;;;;;;8.75;100.00;97264.84;5012813;28;19925;-73
2023/11/05 02:38:20;;;;;;;;;;;;;;;8.67;100.00;97252.53;5024946;28;19932;-73
2023/11/05 02:51:55;;;;;;;;;;;;;;;8.59;100.00;97257.75;5027530;28;19980;-76
2023/11/05 02:54:23;;;;;;;;;;;;;;;8.60;100.00;97262.00;5017835;28;20335;-75
2023/11/05 03:00:58;;;;;;;;;;;;;;;8.59;100.00;97257.75;5030072;28;19925;-69
2023/11/05 03:03:51;;;;;;;;;;;;;;;8.57;100.00;97255.28;5020754;28;19932;-74
2023/11/05 03:07:31;;;;;;;;;;;;;;;8.52;100.00;97252.34;5030555;28;20327;-68
2023/11/05 03:11:12;;;;;;;;;;;;;;;8.53;100.00;97250.53;5022555;28;20374;-70
2023/11/05 03:14:28;;;;;;;;;;;;;;;8.58;100.00;97245.63;5029823;28;19939;-73
2023/11/05 03:26:53;;;;;;;;;;;;;;;8.60;100.00;97225.28;5026032;28;19921;-73
2023/11/05 03:29:45;;;;;;;;;;;;;;;8.64;100.00;97221.38;5027391;28;19925;-74
2023/11/05 03:33:26;;;;;;;;;;;;;;;8.60;100.00;97218.28;5020047;28;19932;-77
2023/11/05 03:37:08;;;;;;;;;;;;;;;8.63;100.00;97214.50;5021711;28;19928;-80
2023/11/05 03:40:24;;;;;;;;;;;;;;;8.61;100.00;97211.22;5024663;28;19936;-77
2023/11/05 03:46:33;;;;;;;;;;;;;;;8.52;100.00;97206.94;5035114;28;19933;-73
2023/11/05 03:49:28;;;;;;;;;;;;;;;8.48;100.00;97208.25;5032666;28;19972;-76
2023/11/05 03:53:09;;;;;;;;;;;;;;;8.48;100.00;97210.88;5022799;28;20008;-71
2023/11/05 03:56:49;;;;;;;;;;;;;;;8.49;100.00;97207.25;5025742;28;20383;-73
2023/11/05 04:00:30;;;;;;;;;;;;;;;8.51;100.00;97207.91;5028075;28;20012;-71
2023/11/05 04:03:22;;;;;;;;;;;;;;;8.46;100.00;97211.00;5018034;28;19965;-74
2023/11/05 04:06:17;;;;;;;;;;;;;;;8.45;100.00;97209.38;5006379;28;20396;-75
2023/11/05 04:09:33;;;;;;;;;;;;;;;8.48;100.00;97214.31;5017126;28;20521;-70
2023/11/05 04:22:37;;;;;;;;;;;;;;;8.43;100.00;97197.44;5024641;28;20034;-73
2023/11/05 04:25:04;;;;;;;;;;;;;;;8.46;100.00;97199.72;4999937;28;19972;-73
2023/11/05 04:38:12;;;;;;;;;;;;;;;8.48;100.00;97190.72;5020747;28;19928;-72
2023/11/05 04:41:05;;;;;;;;;;;;;;;8.51;100.00;97185.16;5024210;28;20079;-73
2023/11/05 04:44:22;;;;;;;;;;;;;;;8.52;100.00;97192.03;5026319;28;19932;-71
2023/11/05 04:47:38;;;;;;;;;;;;;;;8.52;100.00;97189.41;5013805;28;19928;-75
2023/11/05 04:50:06;;;;;;;;;;;;;;;8.51;100.00;97187.78;5021603;28;19929;-74
2023/11/05 04:52:59;;;;;;;;;;;;;;;8.51;100.00;97190.41;5020572;28;19932;-69
2023/11/05 04:55:56;;;;;;;;;;;;;;;8.49;100.00;97194.97;5039877;28;19948;-73
2023/11/05 04:58:48;;;;;;;;;;;;;;;8.49;100.00;97181.88;5026911;28;19932;-74
2023/11/05 05:21:19;;;;;;;;;;;;;;;8.31;100.00;97161.00;5039393;28;20020;-71
2023/11/05 05:24:11;;;;;;;;;;;;;;;8.29;100.00;97165.59;5027877;28;19932;-74
2023/11/05 05:27:30;;;;;;;;;;;;;;;8.26;100.00;97158.03;5015738;28;20399;-72
2023/11/05 05:31:15;;;;;;;;;;;;;;;8.24;100.00;97164.41;5021960;28;19932;-75
2023/11/05 05:34:37;;;;;;;;;;;;;;;8.23;100.00;97171.44;5021589;28;19921;-73
2023/11/05 05:38:18;;;;;;;;;;;;;;;8.26;100.00;97168.53;5019244;28;20034;-72
2023/11/05 05:41:36;;;;;;;;;;;;;;;8.30;100.00;97169.03;5041124;28;19942;-70
2023/11/05 05:44:53;;;;;;;;;;;;;;;8.33;100.00;97168.69;5019090;28;19932;-71
2023/11/05 06:23:00;;;;;;;;;;;;;;;8.31;100.00;97154.94;5024042;28;20402;-73
2023/11/05 06:25:31;;;;;;;;;;;;;;;8.32;100.00;97144.28;5018887;28;19928;-75
2023/11/05 06:27:59;;;;;;;;;;;;;;;8.32;100.00;97149.53;5011911;28;19926;-75
2023/11/05 06:30:51;;;;;;;;;;;;;;;8.32;100.00;97143.47;5015722;28;20325;-71
2023/11/05 06:34:08;;;;;;;;;;;;;;;8.39;100.00;97154.19;5017535;28;19948;-73
2023/11/05 06:37:05;;;;;;;;;;;;;;;8.47;100.00;97149.75;5019306;28;19987;-72
2023/11/05 06:40:20;;;;;;;;;;;;;;;8.58;100.00;97148.63;5014623;28;19928;-72
2023/11/05 06:43:35;;;;;;;;;;;;;;;8.67;100.00;97152.88;5017124;28;20308;-70
2023/11/05 06:46:52;;;;;;;;;;;;;;;8.79;100.00;97156.81;5014665;28;20031;-73
2023/11/05 06:50:08;;;;;;;;;;;;;;;8.91;100.00;97149.44;5016366;28;19928;-72
2023/11/05 06:53:23;;;;;;;;;;;;;;;9.03;100.00;97155.16;5025901;28;19928;-73
2023/11/05 06:56:38;;;;;;;;;;;;;;;9.23;100.00;97155.63;5018849;28;20010;-72
2023/11/05 06:59:54;;;;;;;;;;;;;;;9.38;100.00;97151.34;5018074;28;19928;-70
2023/11/05 07:03:11;;;;;;;;;;;;;;;9.48;100.00;97143.28;5020067;28;19947;-72
2023/11/05 07:06:27;;;;;;;;;;;;;;;9.56;100.00;97138.81;5019549;28;20288;-71
2023/11/05 07:09:43;;;;;;;;;;;;;;;9.69;100.00;97142.72;5016181;28;19943;-71
2023/11/05 07:13:07;;;;;;;;;;;;;;;9.68;100.00;97138.44;5030823;28;20460;-73
2023/11/05 07:19:44;;;;;;;;;;;;;;;9.71;100.00;97143.38;5018540;28;19932;-73
2023/11/05 07:22:37;;;;;;;;;;;;;;;9.70;100.00;97131.22;5017249;28;19964;-75
2023/11/05 07:25:57;;;;;;;;;;;;;;;9.69;100.00;97134.84;5024346;28;19936;-72
2023/11/05 07:29:13;;;;;;;;;;;;;;;9.70;100.00;97131.22;5021450;28;19928;-71
2023/11/05 07:31:43;;;;;;;;;;;;;;;9.63;100.00;97121.38;5023137;28;19944;-72
2023/11/05 07:34:35;;;;;;;;;;;;;;;9.67;100.00;97127.13;5028838;28;19937;-71
2023/11/05 07:38:17;;;;;;;;;;;;;;;9.55;100.00;97124.06;5031511;28;19928;-79
2023/11/05 07:41:58;;;;;;;;;;;;;;;9.52;100.00;97121.75;5033527;28;21285;-74
2023/11/05 07:45:39;;;;;;;;;;;;;;;9.62;100.00;97122.38;5019157;28;20399;-76
2023/11/05 07:49:20;;;;;;;;;;;;;;;9.75;100.00;97123.66;5022773;28;20012;-69
2023/11/05 07:53:00;;;;;;;;;;;;;;;9.73;100.00;97115.94;5021039;28;19932;-73
2023/11/05 07:56:16;;;;;;;;;;;;;;;9.69;100.00;97124.34;5021762;28;19943;-69
2023/11/05 08:09:23;;;;;;;;;;;;;;;9.67;100.00;97132.38;5018319;28;19928;-70
2023/11/05 08:12:15;;;;;;;;;;;;;;;9.77;100.00;97130.38;5019282;28;19933;-68
2023/11/05 08:15:09;;;;;;;;;;;;;;;9.83;100.00;97126.25;5021274;28;19933;-70
2023/11/05 08:18:49;;;;;;;;;;;;;;;9.94;100.00;97133.72;5027075;28;19928;-74
2023/11/05 08:22:06;;;;;;;;;;;;;;;9.95;100.00;97124.88;5021648;28;19944;-73
2023/11/05 08:25:46;;;;;;;;;;;;;;;9.91;100.00;97123.59;5019596;28;20052;-73
2023/11/05 08:29:03;;;;;;;;;;;;;;;10.00;100.00;97132.25;5025282;28;19921;-67
2023/11/05 08:32:20;;;;;;;;;;;;;;;9.93;100.00;97132.09;5019867;28;19928;-66
2023/11/05 08:44:15;;;;;;;;;;;;;;;9.87;100.00;97152.00;5023573;28;19925;-72
2023/11/05 08:47:07;;;;;;;;;;;;;;;9.93;100.00;97147.06;5038434;28;20459;-70
2023/11/05 08:50:01;;;;;;;;;;;;;;;9.84;100.00;97144.44;5022825;28;20281;-74
2023/11/05 08:52:53;;;;;;;;;;;;;;;9.87;100.00;97156.44;5023918;28;19984;-68
2023/11/05 08:56:09;;;;;;;;;;;;;;;9.89;100.00;97162.34;5023129;28;20288;-68
2023/11/05 08:58:36;;;;;;;;;;;;;;;9.79;100.00;97156.47;5021614;28;19990;-70
2023/11/05 09:01:03;;;;;;;;;;;;;;;9.81;100.00;97165.00;5012314;28;20281;-74
2023/11/05 09:03:55;;;;;;;;;;;;;;;9.78;100.00;97167.97;5024143;28;19987;-70
2023/11/05 09:06:47;;;;;;;;;;;;;;;9.79;100.00;97165.16;5023884;28;19932;-70
2023/11/05 09:37:29;;;;;;;;;;;;;;;10.10;100.00;97154.69;5021054;28;20397;-71
2023/11/05 09:40:21;;;;;;;;;;;;;;;10.12;100.00;97157.13;5026147;28;20356;-73
2023/11/05 09:43:18;;;;;;;;;;;;;;;10.09;100.00;97147.81;5029496;28;19925;-75
2023/11/05 09:46:58;;;;;;;;;;;;;;;10.05;100.00;97164.09;5023157;28;19932;-72
2023/11/05 09:50:41;;;;;;;;;;;;;;;10.00;100.00;97158.53;5026782;28;19928;-75
2023/11/05 09:54:21;;;;;;;;;;;;;;;9.98;100.00;97160.50;5024674;28;19928;-69
2023/11/05 09:57:37;;;;;;;;;;;;;;;10.02;100.00;97153.91;5026172;28;20030;-75
2023/11/05 10:00:35;;;;;;;;;;;;;;;10.07;100.00;97141.88;5022198;28;20427;-67
2023/11/05 10:03:09;;;;;;;;;;;;;;;10.07;100.00;97149.75;5015679;28;19932;-75
2023/11/05 10:22:05;;;;;;;;;;;;;;;10.26;100.00;97160.88;5015927;28;20016;-74
2023/11/05 10:25:00;;;;;;;;;;;;;;;10.30;100.00;97143.75;5017940;28;20598;-67
2023/11/05 10:28:16;;;;;;;;;;;;;;;10.35;100.00;97146.69;5012033;28;20385;-66
2023/11/05 10:31:33;;;;;;;;;;;;;;;10.41;100.00;97150.44;5015981;28;19932;-67
2023/11/05 10:40:38;;;;;;;;;;;;;;;10.52;100.00;97142.94;5019890;28;20027;-68
2023/11/05 10:43:08;;;;;;;;;;;;;;;10.58;100.00;97139.66;5037637;28;19926;-68
2023/11/05 10:45:35;;;;;;;;;;;;;;;10.62;100.00;97134.81;5012062;28;19941;-67
2023/11/05 10:48:28;;;;;;;;;;;;;;;10.72;100.00;97140.69;5006299;28;19929;-68
2023/11/05 10:52:08;;;;;;;;;;;;;;;10.80;100.00;97140.59;5025351;28;19928;-68
2023/11/05 10:55:32;;;;;;;;;;;;;;;10.94;100.00;97127.66;5023108;28;19928;-67
2023/11/05 11:12:32;;;;;;;;;;;;;;;11.56;100.00;97136.09;5015784;28;20744;-67
2023/11/05 11:15:24;;;;;;;;;;;;;;;11.68;100.00;97138.28;5018425;28;19979;-68
2023/11/05 11:19:05;;;;;;;;;;;;;;;11.90;100.00;97142.66;5024628;28;19927;-67
2023/11/05 11:22:46;;;;;;;;;;;;;;;12.02;100.00;97138.56;5022565;28;19937;-68
2023/11/05 11:26:27;;;;;;;;;;;;;;;12.11;100.00;97139.22;5021196;28;19928;-68
2023/11/05 11:29:25;;;;;;;;;;;;;;;12.15;100.00;97140.50;5023654;28;19932;-67
2023/11/05 11:32:42;;;;;;;;;;;;;;;12.54;100.00;97132.19;5018757;28;19932;-68
2023/11/05 11:36:23;;;;;;;;;;;;;;;13.04;98.03;97143.59;5031151;28;19931;-68
2023/11/05 11:40:04;;;;;;;;;;;;;;;12.86;99.34;97145.91;5019140;28;19932;-68
2023/11/05 11:43:45;;;;;;;;;;;;;;;12.71;97.91;97140.69;5023531;28;20018;-67
2023/11/05 11:46:37;;;;;;;;;;;;;;;12.48;99.29;97148.78;5024211;28;19925;-67
2023/11/05 11:50:19;;;;;;;;;;;;;;;12.25;100.00;97148.09;5023814;28;19931;-67
2023/11/05 11:53:40;;;;;;;;;;;;;;;12.25;100.00;97148.09;5026600;28;19921;-67
2023/11/05 11:57:22;;;;;;;;;;;;;;;12.24;100.00;97146.50;5025233;28;19928;-66
2023/11/05 12:01:03;;;;;;;;;;;;;;;12.23;100.00;97148.31;5027465;28;20007;-67
2023/11/05 12:03:55;;;;;;;;;;;;;;;12.13;100.00;97153.06;5024820;28;19988;-67
2023/11/05 12:07:36;;;;;;;;;;;;;;;12.26;100.00;97155.03;5017052;28;19929;-67
2023/11/05 12:11:16;;;;;;;;;;;;;;;12.61;99.52;97148.13;5023174;28;19930;-67
2023/11/05 12:14:56;;;;;;;;;;;;;;;13.29;94.38;97153.78;5027243;28;19951;-68
2023/11/05 12:18:12;;;;;;;;;;;;;;;13.54;91.41;97162.09;5030273;28;20002;-67
2023/11/05 12:20:39;;;;;;;;;;;;;;;13.33;92.73;97160.34;5021529;28;19965;-67
2023/11/05 12:23:31;;;;;;;;;;;;;;;13.41;93.21;97160.16;5027306;28;19968;-67
2023/11/05 12:27:11;;;;;;;;;;;;;;;13.21;93.52;97172.41;5025001;28;19931;-67
2023/11/05 12:30:51;;;;;;;;;;;;;;;13.05;92.91;97168.19;5026700;28;19999;-67
2023/11/05 12:34:08;;;;;;;;;;;;;;;14.22;89.91;97165.66;5019632;28;20292;-68
2023/11/05 12:54:12;;;;;;;;;;;;;;;13.39;89.16;97178.84;5025916;28;20010;-66
2023/11/05 12:57:04;;;;;;;;;;;;;;;13.32;89.46;97182.44;5022724;28;19991;-68
2023/11/05 12:59:59;;;;;;;;;;;;;;;13.32;89.97;97191.19;5023514;28;20347;-68
2023/11/05 13:02:51;;;;;;;;;;;;;;;13.04;91.71;97188.50;5022908;28;20676;-68
2023/11/05 13:12:18;;;;;;;;;;;;;;;13.26;90.43;97186.69;5028372;28;19927;-67
2023/11/05 13:15:17;;;;;;;;;;;;;;;13.41;89.27;97194.50;5027609;28;20233;-66
2023/11/05 13:18:35;;;;;;;;;;;;;;;13.61;88.59;97184.91;5027608;28;19943;-67
2023/11/05 13:21:51;;;;;;;;;;;;;;;13.94;88.08;97187.72;5020492;28;19951;-67
2023/11/05 13:31:19;;;;;;;;;;;;;;;13.47;88.88;97196.41;5022322;28;20419;-68
2023/11/05 13:33:48;;;;;;;;;;;;;;;13.33;89.84;97207.88;5018390;28;19991;-69
2023/11/05 13:43:37;;;;;;;;;;;;;;;12.95;92.14;97212.59;5022978;28;20281;-68
2023/11/05 13:46:29;;;;;;;;;;;;;;;12.97;91.82;97214.03;5018910;28;19925;-67
2023/11/05 13:49:45;;;;;;;;;;;;;;;12.86;91.55;97211.88;5032258;28;20299;-69
2023/11/05 13:52:37;;;;;;;;;;;;;;;12.84;92.45;97217.38;5018097;28;19925;-69
2023/11/05 14:41:24;;;;;;;;;;;;;;;12.98;92.19;97267.66;5024189;28;19928;-67
2023/11/05 14:44:40;;;;;;;;;;;;;;;12.87;90.38;97269.75;5026809;28;19940;-68
2023/11/05 14:47:36;;;;;;;;;;;;;;;12.83;90.09;97271.16;5026842;28;19925;-67
2023/11/05 14:50:53;;;;;;;;;;;;;;;12.83;89.45;97281.72;5024121;28;19931;-67
2023/11/05 14:54:08;;;;;;;;;;;;;;;13.01;88.72;97291.03;5030786;28;19928;-68
2023/11/05 14:57:01;;;;;;;;;;;;;;;12.91;88.24;97293.97;5016968;28;19972;-67
2023/11/05 15:00:41;;;;;;;;;;;;;;;12.68;90.29;97294.94;5025539;28;19927;-66
2023/11/05 15:04:22;;;;;;;;;;;;;;;12.59;90.93;97301.31;5018385;28;20006;-66
2023/11/05 15:08:03;;;;;;;;;;;;;;;12.45;92.69;97309.28;5025803;28;19987;-67
2023/11/05 15:11:45;;;;;;;;;;;;;;;12.32;93.54;97308.09;5023012;28;19924;-66
2023/11/05 15:15:25;;;;;;;;;;;;;;;12.26;94.65;97314.09;5020580;28;19932;-66
2023/11/05 15:19:06;;;;;;;;;;;;;;;12.13;96.55;97322.63;5023800;28;19948;-67
2023/11/05 15:22:47;;;;;;;;;;;;;;;12.04;98.28;97330.81;5029236;28;19932;-66
2023/11/05 15:26:29;;;;;;;;;;;;;;;11.89;99.52;97342.16;5027686;28;19928;-65
2023/11/05 15:30:10;;;;;;;;;;;;;;;11.77;100.00;97334.81;5028847;28;19928;-66
2023/11/05 15:33:53;;;;;;;;;;;;;;;11.74;100.00;97343.06;5020887;28;20015;-66
2023/11/05 15:37:10;;;;;;;;;;;;;;;11.59;100.00;97340.41;5022682;28;20015;-66
2023/11/05 17:01:36;;;;;;;;;;;;;;;11.13;100.00;97472.03;5041911;28;20376;-66
2023/11/05 17:04:03;;;;;;;;;;;;;;;11.17;100.00;97475.97;5059618;28;19929;-65
2023/11/05 17:06:30;;;;;;;;;;;;;;;11.19;100.00;97481.06;5048582;28;19932;-68
2023/11/05 17:08:57;;;;;;;;;;;;;;;11.15;100.00;97484.03;5032448;28;20369;-65
2023/11/05 17:11:24;;;;;;;;;;;;;;;11.12;100.00;97489.66;5055368;28;20023;-66
2023/11/05 17:13:51;;;;;;;;;;;;;;;11.15;100.00;97486.66;5052798;28;20011;-66
2023/11/05 17:16:20;;;;;;;;;;;;;;;11.15;100.00;97491.91;5027915;28;20008;-67
2023/11/05 17:18:47;;;;;;;;;;;;;;;11.14;100.00;97495.56;5031500;28;19931;-66
2023/11/05 17:21:14;;;;;;;;;;;;;;;11.16;100.00;97495.38;5036991;28;19975;-66
2023/11/05 17:23:42;;;;;;;;;;;;;;;11.18;100.00;97503.13;5034593;28;20023;-65
2023/11/05 17:26:09;;;;;;;;;;;;;;;11.21;100.00;97505.38;5011992;28;19928;-66
2023/11/05 17:28:36;;;;;;;;;;;;;;;11.24;100.00;97518.22;5040811;28;19979;-67
2023/11/05 17:31:03;;;;;;;;;;;;;;;11.20;100.00;97509.84;5032116;28;19971;-66
2023/11/05 17:33:30;;;;;;;;;;;;;;;11.22;100.00;97522.84;5042133;28;19925;-65
2023/11/05 17:35:57;;;;;;;;;;;;;;;11.23;100.00;97524.50;5052236;28;19931;-65
2023/11/05 17:38:25;;;;;;;;;;;;;;;11.25;100.00;97520.69;5045818;28;19931;-66
2023/11/05 17:40:52;;;;;;;;;;;;;;;11.25;100.00;97530.41;5049391;28;19924;-65
2023/11/05 17:43:19;;;;;;;;;;;;;;;11.27;100.00;97541.59;5050168;28;19925;-66
2023/11/05 17:45:47;;;;;;;;;;;;;;;11.26;100.00;97532.88;5044543;28;20111;-66
2023/11/05 17:48:15;;;;;;;;;;;;;;;11.23;100.00;97535.03;5047424;28;19924;-67
2023/11/05 17:50:42;;;;;;;;;;;;;;;11.19;100.00;97544.25;5044140;28;20019;-66
2023/11/05 17:53:10;;;;;;;;;;;;;;;11.19;100.00;97544.25;5031643;28;19983;-66
2023/11/05 17:55:37;;;;;;;;;;;;;;;11.19;100.00;97555.59;5029283;28;20422;-66
2023/11/05 17:58:05;;;;;;;;;;;;;;;11.20;100.00;97551.97;5045451;28;19928;-66
2023/11/05 18:00:32;;;;;;;;;;;;;;;11.19;100.00;97565.31;5034740;22;19925;-67
2023/11/05 18:02:59;;;;;;;;;;;;;;;11.18;100.00;97561.88;5030326;28;20063;-66
2023/11/05 18:05:27;;;;;;;;;;;;;;;11.18;100.00;97564.50;5026806;28;20044;-66
2023/11/05 18:07:54;;;;;;;;;;;;;;;11.15;100.00;97576.16;5031708;28;20012;-66
2023/11/05 18:10:21;;;;;;;;;;;;;;;11.10;100.00;97578.50;5022583;28;22230;-66
2023/11/05 18:12:48;;;;;;;;;;;;;;;11.00;100.00;97582.31;5023342;28;20356;-67
2023/11/05 18:15:16;;;;;;;;;;;;;;;10.95;100.00;97587.25;5031372;28;19973;-66
2023/11/05 18:17:43;;;;;;;;;;;;;;;10.92;100.00;97596.28;5029690;28;20113;-68
2023/11/05 18:20:12;;;;;;;;;;;;;;;10.77;100.00;97593.53;5024268;28;20020;-67
2023/11/05 18:22:39;;;;;;;;;;;;;;;10.74;100.00;97598.28;5028359;28;19924;-67
2023/11/05 18:25:06;;;;;;;;;;;;;;;10.69;100.00;97611.94;5043316;28;20049;-67
2023/11/05 18:27:34;;;;;;;;;;;;;;;10.73;100.00;97607.16;5009333;28;19925;-66
2023/11/05 18:30:03;;;;;;;;;;;;;;;10.71;100.00;97599.44;5020595;28;20020;-67
2023/11/05 18:32:30;;;;;;;;;;;;;;;10.57;100.00;97611.44;5022484;28;19925;-66
2023/11/05 18:34:57;;;;;;;;;;;;;;;10.58;100.00;97614.88;5024057;28;20071;-67
2023/11/05 18:37:25;;;;;;;;;;;;;;;10.52;100.00;97633.97;5026295;28;19983;-66
2023/11/05 18:39:53;;;;;;;;;;;;;;;10.47;100.00;97626.56;5026758;28;20012;-67
2023/11/05 18:42:20;;;;;;;;;;;;;;;10.48;100.00;97630.81;5025998;28;20277;-67
2023/11/05 18:44:47;;;;;;;;;;;;;;;10.51;100.00;97629.69;5025063;28;19932;-66
2023/11/05 18:47:14;;;;;;;;;;;;;;;10.47;100.00;97637.06;5024922;28;19929;-66
2023/11/05 18:49:42;;;;;;;;;;;;;;;10.49;100.00;97634.28;5029415;28;19956;-66
2023/11/05 18:52:10;;;;;;;;;;;;;;;10.42;100.00;97642.00;5027511;28;20023;-67
2023/11/05 18:54:37;;;;;;;;;;;;;;;10.35;100.00;97641.00;5010213;28;19929;-66
2023/11/05 18:57:04;;;;;;;;;;;;;;;10.30;100.00;97641.47;5023762;28;19955;-66
2023/11/05 18:59:31;;;;;;;;;;;;;;;10.27;100.00;97643.63;5028316;28;19924;-67
2023/11/05 19:01:58;;;;;;;;;;;;;;;10.22;100.00;97649.34;5028365;28;19974;-66
2023/11/05 19:04:29;;;;;;;;;;;;;;;10.23;100.00;97655.41;5024123;28;19932;-65
2023/11/05 19:06:56;;;;;;;;;;;;;;;10.26;100.00;97660.38;5028303;28;20032;-66
2023/11/05 19:09:23;;;;;;;;;;;;;;;10.21;100.00;97667.88;5028935;28;19929;-67
2023/11/05 19:11:51;;;;;;;;;;;;;;;10.19;100.00;97667.25;5021296;28;19933;-67
2023/11/05 19:14:19;;;;;;;;;;;;;;;10.16;100.00;97678.88;5028731;28;20000;-67
2023/11/05 19:16:47;;;;;;;;;;;;;;;10.10;100.00;97674.28;5015038;28;20499;-65
2023/11/05 19:19:15;;;;;;;;;;;;;;;10.17;100.00;97672.63;5023954;28;19961;-68
2023/11/05 19:21:42;;;;;;;;;;;;;;;10.15;100.00;97677.25;5002598;28;19965;-67
2023/11/05 19:24:09;;;;;;;;;;;;;;;10.17;100.00;97688.41;5030126;28;19924;-66
2023/11/05 19:26:36;;;;;;;;;;;;;;;10.11;100.00;97689.06;5031969;28;19979;-65
2023/11/05 19:29:03;;;;;;;;;;;;;;;10.10;100.00;97696.13;5010965;28;19970;-67
2023/11/05 19:31:32;;;;;;;;;;;;;;;10.10;100.00;97711.06;5022847;28;20016;-66
2023/11/05 19:33:59;;;;;;;;;;;;;;;10.01;100.00;97707.59;5027746;28;19972;-68
2023/11/05 19:36:26;;;;;;;;;;;;;;;10.08;100.00;97707.75;5014651;28;20024;-68
2023/11/05 19:38:54;;;;;;;;;;;;;;;9.99;100.00;97722.66;5029859;28;19925;-68
2023/11/05 19:41:32;;;;;;;;;;;;;;;10.03;100.00;97737.16;5030762;28;20052;-68
2023/11/05 19:43:59;;;;;;;;;;;;;;;10.02;100.00;97739.94;5029967;28;20033;-68
2023/11/05 19:46:26;;;;;;;;;;;;;;;9.97;100.00;97737.78;5031402;28;19968;-66
2023/11/05 19:48:53;;;;;;;;;;;;;;;9.99;100.00;97762.09;5033445;28;19971;-67
2023/11/05 19:51:20;;;;;;;;;;;;;;;9.93;100.00;97773.25;5030411;28;20028;-67
2023/11/05 19:53:48;;;;;;;;;;;;;;;9.94;100.00;97751.22;5035834;28;20330;-67
2023/11/05 19:56:19;;;;;;;;;;;;;;;9.92;100.00;97790.00;5029476;28;20094;-67
2023/11/05 19:58:55;;;;;;;;;;;;;;;9.94;100.00;97776.69;5033436;28;19987;-67
2023/11/05 20:01:22;;;;;;;;;;;;;;;9.86;100.00;97778.31;5014318;28;19979;-68
2023/11/05 20:03:49;;;;;;;;;;;;;;;9.84;100.00;97801.28;5035865;28;20384;-67
2023/11/05 20:06:17;;;;;;;;;;;;;;;9.85;100.00;97791.59;5034562;28;19925;-68
2023/11/05 20:08:46;;;;;;;;;;;;;;;9.78;100.00;97785.31;5031496;28;19979;-69
2023/11/05 20:11:14;;;;;;;;;;;;;;;9.78;100.00;97806.34;5018169;28;20531;-68
2023/11/05 20:13:42;;;;;;;;;;;;;;;9.79;100.00;97808.78;5024739;28;20020;-68
2023/11/05 20:16:10;;;;;;;;;;;;;;;9.75;100.00;97811.88;5038622;28;20462;-69
2023/11/05 20:18:37;;;;;;;;;;;;;;;9.76;100.00;97816.16;5030165;28;19925;-67
2023/11/05 20:21:04;;;;;;;;;;;;;;;9.70;100.00;97832.53;5029201;28;19969;-69
2023/11/05 20:23:32;;;;;;;;;;;;;;;9.70;100.00;97836.00;5029188;28;19925;-69
2023/11/05 20:25:59;;;;;;;;;;;;;;;9.70;100.00;97853.56;5028437;28;19956;-70
2023/11/05 20:28:26;;;;;;;;;;;;;;;9.69;100.00;97858.00;5031388;28;20024;-69
2023/11/05 20:30:53;;;;;;;;;;;;;;;9.63;100.00;97859.41;5015443;28;20334;-65
2023/11/05 20:33:21;;;;;;;;;;;;;;;9.63;100.00;97856.78;5027628;28;19964;-68
2023/11/05 20:35:51;;;;;;;;;;;;;;;9.63;100.00;97869.91;5034046;28;19956;-67
2023/11/05 20:38:18;;;;;;;;;;;;;;;9.60;100.00;97867.59;5031624;28;19960;-68
2023/11/05 20:40:46;;;;;;;;;;;;;;;9.66;100.00;97875.84;5030587;28;20007;-68
2023/11/05 20:43:14;;;;;;;;;;;;;;;9.66;100.00;97867.97;5018451;28;20028;-67
2023/11/05 20:45:41;;;;;;;;;;;;;;;9.68;100.00;97881.75;5028737;28;19925;-69
2023/11/05 20:48:08;;;;;;;;;;;;;;;9.74;100.00;97873.28;5033422;28;19995;-67
2023/11/05 20:50:36;;;;;;;;;;;;;;;9.78;100.00;97893.03;5036711;28;20300;-69
2023/11/05 20:53:03;;;;;;;;;;;;;;;9.79;100.00;97892.88;5033455;28;19933;-68
2023/11/05 20:55:35;;;;;;;;;;;;;;;9.79;100.00;97927.03;5029379;28;20359;-70
2023/11/05 20:58:06;;;;;;;;;;;;;;;9.77;100.00;97918.47;5026770;28;19971;-72
2023/11/05 21:00:33;;;;;;;;;;;;;;;9.78;100.00;97917.50;5029787;28;19933;-71
2023/11/05 21:03:00;;;;;;;;;;;;;;;9.67;100.00;97933.47;5027903;28;20016;-73
2023/11/05 21:05:28;;;;;;;;;;;;;;;9.72;100.00;97933.03;5024066;28;20356;-72
2023/11/05 21:07:56;;;;;;;;;;;;;;;9.72;100.00;97940.91;5014066;28;19979;-73
2023/11/05 21:10:25;;;;;;;;;;;;;;;9.66;100.00;97944.97;5026926;28;19929;-73
2023/11/05 21:12:53;;;;;;;;;;;;;;;9.70;100.00;97954.19;5026947;28;19925;-73
2023/11/05 21:15:20;;;;;;;;;;;;;;;9.73;100.00;97959.16;5004083;28;19972;-72
2023/11/05 21:17:47;;;;;;;;;;;;;;;9.64;100.00;97974.03;5029500;28;20339;-73
2023/11/05 21:20:14;;;;;;;;;;;;;;;9.60;100.00;97961.34;5026786;28;19957;-72
2023/11/05 21:22:43;;;;;;;;;;;;;;;9.65;100.00;97964.34;5027376;28;19964;-72
2023/11/05 21:25:11;;;;;;;;;;;;;;;9.66;100.00;97965.97;5029046;28;19925;-72
2023/11/05 21:27:38;;;;;;;;;;;;;;;9.64;100.00;97971.41;5007226;28;19979;-71
2023/11/05 21:30:11;;;;;;;;;;;;;;;9.71;100.00;97973.41;5028454;28;20020;-73
2023/11/05 21:32:43;;;;;;;;;;;;;;;9.64;100.00;97994.22;5038958;28;19929;-73
2023/11/05 21:35:11;;;;;;;;;;;;;;;9.70;100.00;97982.28;5010507;28;19933;-76
2023/11/05 21:37:38;;;;;;;;;;;;;;;9.71;100.00;98007.56;5028194;28;19925;-74
2023/11/05 21:40:06;;;;;;;;;;;;;;;9.69;100.00;97994.59;5014193;28;20367;-73
2023/11/05 21:42:34;;;;;;;;;;;;;;;9.73;100.00;98005.63;5025722;28;19925;-73
2023/11/05 21:45:01;;;;;;;;;;;;;;;9.71;100.00;98002.31;5029262;28;20396;-72
2023/11/05 21:47:30;;;;;;;;;;;;;;;9.70;100.00;98014.63;5028023;28;21316;-73
2023/11/05 21:49:57;;;;;;;;;;;;;;;9.76;100.00;98013.19;5007105;28;21588;-72
2023/11/05 21:52:26;;;;;;;;;;;;;;;9.77;100.00;98026.19;5029556;28;20005;-73
2023/11/05 21:54:56;;;;;;;;;;;;;;;9.78;100.00;98032.28;5028248;28;20388;-72
2023/11/05 21:57:23;;;;;;;;;;;;;;;9.75;100.00;98043.91;5025717;28;19937;-74
2023/11/05 21:59:50;;;;;;;;;;;;;;;9.73;100.00;98039.78;5028737;28;20016;-72
2023/11/05 22:02:17;;;;;;;;;;;;;;;9.75;100.00;98048.31;5009335;28;19960;-73
2023/11/05 22:04:49;;;;;;;;;;;;;;;9.69;100.00;98051.56;5029861;28;20255;-73
2023/11/05 22:07:18;;;;;;;;;;;;;;;9.69;100.00;98059.44;5029584;28;19925;-72